createdAt,value
2023-04-26T00:00:14.682Z,7.40
2023-04-26T00:02:45.852Z,7.50
2023-04-26T00:05:15.485Z,7.60
2023-04-26T00:07:46.597Z,7.40
2023-04-26T00:10:18.796Z,7.20
2023-04-26T00:12:51.863Z,7.50
2023-04-26T00:15:21.179Z,7.50
2023-04-26T00:17:51.128Z,7.50
2023-04-26T00:20:20.547Z,7.50
2023-04-26T00:22:52.148Z,7.40
2023-04-26T00:25:41.766Z,7.30
2023-04-26T00:28:43.532Z,7.40
2023-04-26T00:32:03.925Z,7.40
2023-04-26T00:34:54.526Z,7.40
2023-04-26T00:37:57.396Z,7.40
2023-04-26T00:41:01.131Z,7.40
2023-04-26T00:44:02.619Z,7.40
2023-04-26T00:47:11.894Z,7.50
2023-04-26T00:52:45.063Z,7.60
2023-04-26T00:55:13.937Z,7.50
2023-04-26T00:57:45.982Z,7.60
2023-04-26T01:00:16.554Z,7.70
2023-04-26T01:02:47.557Z,7.40
2023-04-26T01:05:56.422Z,7.70
2023-04-26T01:08:26.703Z,7.80
2023-04-26T01:10:58.620Z,7.90
2023-04-26T01:13:32.954Z,7.70
2023-04-26T01:16:04.871Z,7.70
2023-04-26T01:18:36.430Z,7.70
2023-04-26T01:21:05.947Z,7.90
2023-04-26T01:23:37.039Z,7.90
2023-04-26T01:26:06.158Z,7.90
2023-04-26T01:28:36.044Z,7.90
2023-04-26T01:31:04.569Z,7.90
2023-04-26T01:33:32.832Z,8.00
2023-04-26T01:36:01.111Z,7.90
2023-04-26T01:38:29.406Z,7.90
2023-04-26T01:40:59.168Z,7.90
2023-04-26T01:43:27.980Z,7.90
2023-04-26T01:45:56.385Z,7.80
2023-04-26T01:48:25.086Z,7.80
2023-04-26T01:50:53.399Z,7.80
2023-04-26T01:53:21.875Z,7.80
2023-04-26T01:55:50.173Z,7.80
2023-04-26T01:58:20.520Z,7.70
2023-04-26T02:00:49.202Z,7.70
2023-04-26T02:03:20.299Z,7.50
2023-04-26T02:05:49.565Z,7.70
2023-04-26T02:08:19.055Z,7.60
2023-04-26T02:10:48.958Z,7.60
2023-04-26T02:13:19.810Z,7.60
2023-04-26T02:15:50.162Z,7.60
2023-04-26T02:18:22.685Z,7.60
2023-04-26T02:20:52.760Z,7.50
2023-04-26T02:23:28.251Z,7.40
2023-04-26T02:25:58.954Z,7.50
2023-04-26T02:28:28.885Z,7.50
2023-04-26T02:30:58.767Z,7.50
2023-04-26T02:33:27.191Z,7.50
2023-04-26T02:35:55.597Z,7.40
2023-04-26T02:38:24.011Z,7.40
2023-04-26T02:40:59.517Z,7.40
2023-04-26T02:43:29.424Z,7.30
2023-04-26T02:45:58.758Z,7.30
2023-04-26T02:48:27.133Z,7.30
2023-04-26T02:50:55.389Z,7.30
2023-04-26T02:53:23.659Z,7.30
2023-04-26T02:55:52.038Z,7.30
2023-04-26T02:58:20.298Z,7.30
2023-04-26T03:00:50.008Z,7.40
2023-04-26T03:03:18.594Z,7.30
2023-04-26T03:05:47.340Z,7.30
2023-04-26T03:08:15.697Z,7.30
2023-04-26T03:10:45.752Z,7.30
2023-04-26T03:13:15.188Z,7.30
2023-04-26T03:15:47.217Z,7.20
2023-04-26T03:18:17.352Z,7.20
2023-04-26T03:20:46.701Z,7.20
2023-04-26T03:23:26.297Z,7.10
2023-04-26T03:26:08.799Z,7.10
2023-04-26T03:29:09.171Z,7.10
2023-04-26T03:31:52.855Z,7.00
2023-04-26T03:34:35.971Z,7.10
2023-04-26T03:37:13.527Z,7.10
2023-04-26T03:39:56.596Z,7.10
2023-04-26T03:42:44.735Z,7.10
2023-04-26T03:45:24.009Z,7.20
2023-04-26T03:48:09.876Z,7.10
2023-04-26T03:51:12.069Z,7.20
2023-04-26T03:53:58.838Z,7.10
2023-04-26T03:56:38.105Z,7.10
2023-04-26T03:59:40.587Z,7.30
2023-04-26T04:02:30.418Z,7.30
2023-04-26T04:05:14.416Z,7.20
2023-04-26T04:08:19.596Z,7.20
2023-04-26T04:11:04.159Z,7.30
2023-04-26T04:13:55.939Z,7.20
2023-04-26T04:16:45.500Z,7.40
2023-04-26T04:19:40.993Z,7.40
2023-04-26T04:22:34.119Z,7.50
2023-04-26T04:25:21.643Z,7.50
2023-04-26T04:27:52.121Z,7.60
2023-04-26T04:30:22.550Z,7.60
2023-04-26T04:32:58.278Z,7.70
2023-04-26T04:35:36.291Z,7.60
2023-04-26T04:38:09.505Z,7.50
2023-04-26T04:40:44.594Z,7.70
2023-04-26T04:43:16.564Z,7.80
2023-04-26T04:45:46.854Z,8.00
2023-04-26T04:48:16.300Z,7.90
2023-04-26T04:50:45.533Z,8.20
2023-04-26T04:53:14.197Z,8.60
2023-04-26T04:55:45.149Z,8.80
2023-04-26T04:58:14.981Z,9.00
2023-04-26T05:00:43.825Z,9.40
2023-04-26T05:03:12.627Z,9.70
2023-04-26T05:05:41.169Z,9.90
2023-04-26T05:08:09.624Z,10.20
2023-04-26T05:10:37.838Z,10.50
2023-04-26T05:13:07.469Z,10.70
2023-04-26T05:15:35.778Z,11.00
2023-04-26T05:18:04.074Z,11.20
2023-04-26T05:20:32.656Z,11.40
2023-04-26T05:23:01.001Z,11.60
2023-04-26T05:25:29.144Z,11.80
2023-04-26T05:27:57.351Z,12.00
2023-04-26T05:30:35.068Z,12.00
2023-04-26T05:37:37.336Z,12.20
2023-04-26T05:40:29.195Z,11.90
2023-04-26T05:43:04.897Z,11.80
2023-04-26T05:45:39.171Z,11.50
2023-04-26T05:48:11.010Z,11.40
2023-04-26T05:50:40.860Z,11.30
2023-04-26T05:53:12.477Z,11.10
2023-04-26T05:55:43.922Z,11.00
2023-04-26T05:58:16.471Z,10.90
2023-04-26T06:00:48.767Z,10.60
2023-04-26T06:03:21.632Z,10.70
2023-04-26T06:05:51.363Z,10.60
2023-04-26T06:08:22.444Z,10.30
2023-04-26T06:10:51.995Z,10.40
2023-04-26T06:13:21.202Z,10.40
2023-04-26T06:15:53.292Z,10.50
2023-04-26T06:18:22.614Z,10.60
2023-04-26T06:20:53.451Z,10.50
2023-04-26T06:23:27.099Z,10.60
2023-04-26T06:25:57.490Z,10.70
2023-04-26T06:28:30.882Z,10.70
2023-04-26T06:31:00.741Z,10.80
2023-04-26T06:33:28.913Z,10.80
2023-04-26T06:35:57.208Z,10.90
2023-04-26T06:38:25.453Z,10.80
2023-04-26T06:40:54.168Z,11.00
2023-04-26T06:43:22.365Z,11.00
2023-04-26T06:45:51.789Z,10.90
2023-04-26T06:48:21.341Z,11.20
2023-04-26T06:50:49.556Z,11.30
2023-04-26T06:53:17.739Z,11.40
2023-04-26T06:55:46.117Z,11.50
2023-04-26T06:58:14.317Z,11.70
2023-04-26T07:00:42.846Z,11.70
2023-04-26T07:03:11.181Z,11.80
2023-04-26T07:05:42.200Z,11.90
2023-04-26T07:08:10.458Z,12.00
2023-04-26T07:10:40.678Z,12.10
